Time;durP1;ratioP1;P1;durP2;ratioP2;P2;SDS_P1;SDS_P2;PMS_P1;PMS_P2;Temp;Humidity;BMP_temperature;BMP_pressure;BME280_temperature;BME280_humidity;BME280_pressure;Samples;Min_cycle;Max_cycle;Signal;HPM_P1;HPM_P2
2024/01/27 00:00:28;;;;;;;17.00;15.63;;;3.70;99.90;;;;;;4997029;28;20197;-64
2024/01/27 00:02:56;;;;;;;16.73;15.30;;;3.70;99.90;;;;;;4975384;28;20232;-65
2024/01/27 00:05:23;;;;;;;23.70;15.37;;;3.70;99.90;;;;;;4965099;28;20206;-64
2024/01/27 00:07:52;;;;;;;25.70;15.83;;;3.70;99.90;;;;;;4976792;28;20220;-64
2024/01/27 00:10:19;;;;;;;18.47;15.40;;;3.70;99.90;;;;;;4987827;28;20312;-64
2024/01/27 00:12:46;;;;;;;17.77;15.37;;;3.60;99.90;;;;;;4977341;28;20578;-63
2024/01/27 00:15:12;;;;;;;27.77;16.97;;;3.60;99.90;;;;;;4995296;28;20231;-64
2024/01/27 00:17:40;;;;;;;19.63;15.23;;;3.60;99.90;;;;;;4994682;28;20233;-64
2024/01/27 00:20:07;;;;;;;18.43;16.10;;;3.60;99.90;;;;;;4976437;28;20289;-64
2024/01/27 00:22:35;;;;;;;17.80;16.03;;;3.70;99.90;;;;;;4971020;28;20205;-69
2024/01/27 00:25:01;;;;;;;16.20;14.87;;;3.60;99.90;;;;;;4983386;28;20194;-68
2024/01/27 00:27:28;;;;;;;16.60;14.70;;;3.60;99.90;;;;;;4987342;28;20212;-70
2024/01/27 00:29:56;;;;;;;16.87;15.03;;;3.60;99.90;;;;;;4973234;28;20194;-67
2024/01/27 00:32:23;;;;;;;19.20;16.80;;;3.50;99.90;;;;;;4974203;28;20186;-64
2024/01/27 00:34:50;;;;;;;19.73;15.67;;;3.60;99.90;;;;;;4984634;28;20206;-64
2024/01/27 00:37:17;;;;;;;18.30;15.37;;;3.50;99.90;;;;;;4949560;28;20221;-63
2024/01/27 00:39:45;;;;;;;18.90;15.23;;;3.60;99.90;;;;;;4990562;28;20646;-64
2024/01/27 00:42:12;;;;;;;24.23;15.67;;;3.50;99.90;;;;;;4993778;28;20565;-64
2024/01/27 00:44:39;;;;;;;21.60;15.27;;;3.50;99.90;;;;;;4966282;28;20206;-63
2024/01/27 00:47:06;;;;;;;17.23;15.60;;;3.50;99.90;;;;;;4974822;28;20194;-63
2024/01/27 00:49:33;;;;;;;16.90;15.13;;;3.50;99.90;;;;;;4976416;28;20896;-64
2024/01/27 00:52:00;;;;;;;17.20;15.47;;;3.40;99.90;;;;;;4993860;28;20300;-63
2024/01/27 00:54:27;;;;;;;19.33;15.40;;;3.40;99.90;;;;;;4976521;28;20225;-63
2024/01/27 00:56:54;;;;;;;16.73;15.10;;;3.40;99.90;;;;;;4975922;28;20201;-63
2024/01/27 00:59:22;;;;;;;17.53;15.60;;;3.30;99.90;;;;;;4991908;28;20252;-64
2024/01/27 01:01:49;;;;;;;19.37;15.47;;;3.30;99.90;;;;;;4975168;28;20208;-63
2024/01/27 01:04:16;;;;;;;17.17;15.43;;;3.20;99.90;;;;;;4995051;28;20198;-64
2024/01/27 01:06:43;;;;;;;17.17;15.60;;;3.20;99.90;;;;;;4973980;28;20193;-62
2024/01/27 01:09:10;;;;;;;18.93;15.73;;;3.20;99.90;;;;;;4956683;28;20492;-62
2024/01/27 01:11:37;;;;;;;20.43;15.60;;;3.10;99.90;;;;;;4969029;28;20197;-63
2024/01/27 01:14:06;;;;;;;23.37;15.00;;;3.10;99.90;;;;;;4972266;28;20685;-66
2024/01/27 01:16:33;;;;;;;16.17;14.57;;;3.10;99.90;;;;;;4996178;28;20212;-63
2024/01/27 01:19:00;;;;;;;26.37;14.97;;;3.10;99.90;;;;;;4989519;28;20209;-63
2024/01/27 01:21:28;;;;;;;19.87;15.50;;;3.10;99.90;;;;;;4947822;28;20284;-62
2024/01/27 01:23:55;;;;;;;15.53;14.10;;;3.10;99.90;;;;;;4965926;28;20209;-63
2024/01/27 01:26:24;;;;;;;27.27;14.63;;;3.10;99.90;;;;;;4988234;28;20566;-63
2024/01/27 01:28:51;;;;;;;14.97;13.67;;;3.10;99.90;;;;;;4958239;28;20200;-63
2024/01/27 01:31:18;;;;;;;15.93;14.17;;;3.00;99.90;;;;;;4969219;28;20210;-63
2024/01/27 01:33:45;;;;;;;17.13;14.60;;;3.00;99.90;;;;;;4985111;28;20194;-64
2024/01/27 01:36:12;;;;;;;16.60;14.53;;;3.00;99.90;;;;;;4973201;28;20213;-64
2024/01/27 01:38:40;;;;;;;20.43;14.50;;;2.90;99.90;;;;;;5003286;28;20675;-64
2024/01/27 01:41:07;;;;;;;17.60;14.20;;;2.90;99.90;;;;;;4980022;28;20197;-68
2024/01/27 01:43:34;;;;;;;15.53;14.23;;;2.90;99.90;;;;;;4977183;28;20220;-68
2024/01/27 01:46:02;;;;;;;16.20;14.67;;;2.90;99.90;;;;;;4975190;28;20273;-68
2024/01/27 01:48:29;;;;;;;16.77;15.07;;;2.90;99.90;;;;;;4978745;28;20308;-68
2024/01/27 01:50:58;;;;;;;23.00;14.60;;;2.80;99.90;;;;;;4982876;28;20273;-68
2024/01/27 01:53:25;;;;;;;24.93;16.00;;;2.90;99.90;;;;;;4972668;28;20233;-68
2024/01/27 01:55:52;;;;;;;21.67;16.43;;;2.80;99.90;;;;;;4971749;28;20352;-67
2024/01/27 01:58:19;;;;;;;23.47;16.50;;;2.70;99.90;;;;;;4970541;28;20217;-68
2024/01/27 02:00:46;;;;;;;17.53;15.80;;;2.80;99.90;;;;;;4971197;28;20193;-68
2024/01/27 02:03:14;;;;;;;15.57;14.00;;;2.80;99.90;;;;;;4977847;28;20726;-69
2024/01/27 02:05:41;;;;;;;18.63;16.57;;;2.90;99.90;;;;;;4979776;28;20399;-68
2024/01/27 02:08:08;;;;;;;18.63;14.83;;;2.90;99.90;;;;;;4988099;28;20700;-68
2024/01/27 02:10:38;;;;;;;32.33;16.83;;;2.80;99.90;;;;;;4990794;28;20289;-68
2024/01/27 02:13:20;;;;;;;23.53;18.17;;;2.80;99.90;;;;;;4991299;28;20673;-67
2024/01/27 02:15:48;;;;;;;23.03;15.20;;;2.90;99.90;;;;;;4978229;28;20658;-68
2024/01/27 02:18:16;;;;;;;17.77;14.37;;;2.90;99.90;;;;;;4973412;28;20578;-67
2024/01/27 02:20:43;;;;;;;15.80;14.23;;;2.80;99.90;;;;;;4990979;28;20898;-66
2024/01/27 02:23:10;;;;;;;22.10;14.03;;;2.80;99.90;;;;;;4972144;28;20198;-68
2024/01/27 02:25:37;;;;;;;16.13;13.20;;;2.70;99.90;;;;;;4992641;28;20201;-68
2024/01/27 02:28:05;;;;;;;21.43;14.00;;;2.60;99.90;;;;;;4987365;28;20255;-68
2024/01/27 02:30:32;;;;;;;14.33;13.03;;;2.60;99.90;;;;;;4973833;28;20552;-67
2024/01/27 02:32:59;;;;;;;23.50;14.23;;;2.70;99.90;;;;;;4973112;28;20280;-68
2024/01/27 02:35:26;;;;;;;20.60;14.13;;;2.70;99.90;;;;;;4989779;28;20605;-68
2024/01/27 02:37:53;;;;;;;17.10;13.70;;;2.70;99.90;;;;;;4973129;28;20650;-68
2024/01/27 02:40:21;;;;;;;15.47;13.10;;;2.60;99.90;;;;;;4987407;28;20209;-69
2024/01/27 02:42:48;;;;;;;15.77;14.13;;;2.60;99.90;;;;;;4990375;28;20666;-69
2024/01/27 02:45:15;;;;;;;25.40;13.63;;;2.60;99.90;;;;;;4964468;28;20194;-69
2024/01/27 02:47:42;;;;;;;18.00;13.30;;;2.60;99.90;;;;;;4984414;28;20197;-69
2024/01/27 02:50:09;;;;;;;14.40;13.20;;;2.50;99.90;;;;;;4966755;28;20323;-69
2024/01/27 02:52:37;;;;;;;23.90;14.30;;;2.60;99.90;;;;;;4970724;28;20205;-64
2024/01/27 02:55:05;;;;;;;15.70;14.03;;;2.50;99.90;;;;;;4984069;28;20234;-63
2024/01/27 02:57:32;;;;;;;23.60;14.23;;;2.50;99.90;;;;;;4962474;28;20567;-63
2024/01/27 02:59:59;;;;;;;20.57;13.33;;;2.40;99.90;;;;;;4979832;28;20554;-62
2024/01/27 03:06:08;;;;;;;13.27;12.27;;;2.30;99.90;;;;;;4988468;28;20186;-62
2024/01/27 03:08:35;;;;;;;18.20;13.63;;;2.30;99.90;;;;;;4990216;28;20209;-62
2024/01/27 03:11:03;;;;;;;22.10;12.23;;;2.30;1.00;;;;;;4968917;28;20213;-62
2024/01/27 03:13:30;;;;;;;18.27;12.87;;;2.40;1.00;;;;;;4983637;28;20224;-61
2024/01/27 03:15:57;;;;;;;18.93;13.50;;;2.40;1.00;;;;;;4970311;28;20255;-64
2024/01/27 03:18:25;;;;;;;17.53;13.00;;;2.30;1.00;;;;;;4983376;28;20633;-63
2024/01/27 03:20:52;;;;;;;18.17;12.93;;;2.30;1.00;;;;;;4971311;28;20192;-62
2024/01/27 03:23:19;;;;;;;14.50;13.07;;;2.20;1.00;;;;;;4976192;28;20189;-61
2024/01/27 03:25:46;;;;;;;24.23;12.97;;;2.20;1.00;;;;;;4978048;28;20186;-62
2024/01/27 03:28:13;;;;;;;14.00;12.70;;;2.20;1.00;;;;;;4994084;28;20213;-62
2024/01/27 03:30:40;;;;;;;18.43;13.60;;;2.20;1.00;;;;;;4993807;28;20255;-62
2024/01/27 03:33:10;;;;;;;19.67;11.83;;;2.10;1.00;;;;;;4976493;28;20324;-62
2024/01/27 03:35:38;;;;;;;14.33;12.63;;;2.20;1.00;;;;;;4967829;28;20248;-61
2024/01/27 03:38:05;;;;;;;18.47;13.23;;;2.20;1.00;;;;;;4975062;28;20572;-63
2024/01/27 03:40:32;;;;;;;22.17;13.20;;;2.20;1.00;;;;;;4990829;28;20261;-64
2024/01/27 03:42:59;;;;;;;20.00;12.70;;;2.20;1.00;;;;;;4992547;28;20197;-62
2024/01/27 03:45:26;;;;;;;18.77;12.87;;;2.10;1.00;;;;;;4992617;28;20732;-61
2024/01/27 03:47:53;;;;;;;16.00;13.30;;;2.10;1.00;;;;;;4974786;28;20204;-61
2024/01/27 03:50:21;;;;;;;21.57;13.53;;;2.10;1.00;;;;;;4992627;28;20189;-61
2024/01/27 03:52:48;;;;;;;13.40;12.40;;;2.10;1.00;;;;;;4992615;28;20209;-63
2024/01/27 03:55:15;;;;;;;13.73;12.30;;;2.00;1.00;;;;;;4983993;28;20291;-62
2024/01/27 03:57:42;;;;;;;14.57;13.17;;;2.00;1.00;;;;;;4974542;28;20256;-62
2024/01/27 04:00:11;;;;;;;17.90;13.47;;;1.90;1.00;;;;;;4974567;28;20569;-61
2024/01/27 04:02:38;;;;;;;18.03;13.80;;;2.00;1.00;;;;;;4992153;28;20263;-68
2024/01/27 04:05:06;;;;;;;23.20;12.97;;;2.10;1.00;;;;;;4973655;28;20189;-68
2024/01/27 04:07:33;;;;;;;14.83;13.10;;;2.10;1.00;;;;;;4967014;28;20297;-68
2024/01/27 04:10:03;;;;;;;16.80;13.20;;;2.10;1.00;;;;;;4965912;28;20285;-68
2024/01/27 04:12:30;;;;;;;18.90;13.23;;;2.10;1.00;;;;;;4975612;28;20298;-68
2024/01/27 04:14:59;;;;;;;17.03;13.77;;;2.10;1.00;;;;;;4959457;28;20717;-68
2024/01/27 04:17:26;;;;;;;14.50;12.87;;;2.10;1.00;;;;;;4972638;28;20262;-67
2024/01/27 04:19:53;;;;;;;14.87;13.30;;;2.20;1.00;;;;;;4985709;28;20225;-68
2024/01/27 04:22:21;;;;;;;14.83;13.33;;;2.10;1.00;;;;;;4992482;28;20204;-69
2024/01/27 04:24:48;;;;;;;14.30;12.57;;;2.00;1.00;;;;;;4971220;28;20222;-68
2024/01/27 04:27:15;;;;;;;21.27;13.77;;;2.10;1.00;;;;;;4963740;28;20208;-69
2024/01/27 04:29:42;;;;;;;16.90;13.47;;;2.00;1.00;;;;;;4991093;28;20248;-68
2024/01/27 04:32:09;;;;;;;13.83;12.33;;;1.90;1.00;;;;;;4990749;28;20622;-69
2024/01/27 04:34:36;;;;;;;17.83;13.07;;;1.80;1.00;;;;;;4991052;28;20252;-69
2024/01/27 04:37:03;;;;;;;19.37;14.17;;;1.70;1.00;;;;;;4999119;28;20221;-68
2024/01/27 04:39:30;;;;;;;15.07;13.67;;;1.70;1.00;;;;;;4976073;28;20312;-69
2024/01/27 04:41:57;;;;;;;17.40;14.17;;;1.70;1.00;;;;;;4973832;28;20208;-68
2024/01/27 04:44:24;;;;;;;19.63;14.27;;;1.70;1.00;;;;;;4971827;28;20190;-68
2024/01/27 04:46:51;;;;;;;19.73;15.10;;;1.80;1.00;;;;;;4973400;28;20190;-69
2024/01/27 04:49:18;;;;;;;20.00;15.50;;;1.90;1.00;;;;;;4972337;28;20264;-69
2024/01/27 04:51:46;;;;;;;17.37;14.03;;;1.90;1.00;;;;;;4958456;28;20202;-68
2024/01/27 04:54:13;;;;;;;18.77;14.00;;;1.90;1.00;;;;;;4968408;28;20241;-68
2024/01/27 04:56:40;;;;;;;17.03;14.03;;;1.90;1.00;;;;;;4974123;28;20190;-67
2024/01/27 04:59:07;;;;;;;18.87;14.63;;;1.70;1.00;;;;;;4960621;28;20262;-68
2024/01/27 05:01:34;;;;;;;26.27;15.00;;;1.70;1.00;;;;;;4958910;28;20186;-63
2024/01/27 05:04:01;;;;;;;21.03;13.50;;;1.60;1.00;;;;;;4989762;28;20301;-62
2024/01/27 05:06:28;;;;;;;21.70;14.10;;;1.60;1.00;;;;;;4973620;28;20185;-62
2024/01/27 05:08:55;;;;;;;16.73;13.43;;;1.60;1.00;;;;;;4990749;28;20218;-62
2024/01/27 05:11:31;;;;;;;19.47;13.50;;;1.60;1.00;;;;;;4973011;28;20233;-69
2024/01/27 05:13:59;;;;;;;19.73;14.40;;;1.60;1.00;;;;;;4988146;28;20704;-68
2024/01/27 05:16:27;;;;;;;17.23;14.10;;;1.60;1.00;;;;;;4972383;28;20638;-68
2024/01/27 05:18:54;;;;;;;14.27;12.77;;;1.80;1.00;;;;;;4963681;28;20206;-68
2024/01/27 05:21:21;;;;;;;16.07;13.10;;;1.90;1.00;;;;;;4986680;28;20429;-69
2024/01/27 05:23:48;;;;;;;16.33;12.87;;;1.90;1.00;;;;;;4998325;28;20185;-69
2024/01/27 05:26:15;;;;;;;14.73;12.90;;;1.90;1.00;;;;;;4963530;28;20201;-68
2024/01/27 05:28:42;;;;;;;18.87;12.93;;;1.90;1.00;;;;;;4973039;28;20648;-69
2024/01/27 05:31:09;;;;;;;17.53;12.60;;;1.80;1.00;;;;;;4985297;28;20341;-69
2024/01/27 05:33:37;;;;;;;17.73;13.07;;;1.90;1.00;;;;;;4972630;28;20260;-68
2024/01/27 05:36:04;;;;;;;14.83;13.33;;;1.90;1.00;;;;;;4970948;28;20683;-67
2024/01/27 05:38:31;;;;;;;14.13;12.63;;;1.90;1.00;;;;;;4954334;28;20249;-68
2024/01/27 05:41:01;;;;;;;17.03;12.77;;;2.00;1.00;;;;;;4970636;28;20627;-70
2024/01/27 05:43:28;;;;;;;13.53;12.17;;;2.00;1.00;;;;;;4972008;28;20201;-68
2024/01/27 05:45:55;;;;;;;16.13;13.30;;;1.90;1.00;;;;;;4972013;28;20241;-68
2024/01/27 05:48:22;;;;;;;19.17;13.53;;;1.90;1.00;;;;;;4990965;28;20233;-68
2024/01/27 05:50:59;;;;;;;16.83;12.77;;;2.00;1.00;;;;;;4990945;28;20620;-69
2024/01/27 05:53:27;;;;;;;15.20;13.90;;;2.00;1.00;;;;;;4962496;28;20308;-69
2024/01/27 05:55:55;;;;;;;16.10;14.63;;;1.90;1.00;;;;;;4979175;28;20247;-69
2024/01/27 05:58:22;;;;;;;17.87;15.00;;;2.10;1.00;;;;;;4967633;28;20224;-68
2024/01/27 06:00:49;;;;;;;16.97;15.17;;;2.00;1.00;;;;;;4971440;28;20194;-69
2024/01/27 06:03:17;;;;;;;17.33;15.57;;;1.90;1.00;;;;;;4965685;28;20213;-69
2024/01/27 06:05:44;;;;;;;21.03;14.63;;;2.00;1.00;;;;;;4983731;28;20193;-68
2024/01/27 06:08:11;;;;;;;15.30;13.83;;;2.00;1.00;;;;;;4974171;28;20275;-70
2024/01/27 06:10:38;;;;;;;23.03;13.90;;;2.10;1.00;;;;;;4966152;28;20202;-70
2024/01/27 06:13:05;;;;;;;20.53;13.43;;;2.00;1.00;;;;;;4965862;28;20713;-70
2024/01/27 06:15:32;;;;;;;20.00;14.17;;;2.00;1.00;;;;;;4968952;28;20446;-70
2024/01/27 06:17:59;;;;;;;30.13;14.90;;;1.90;1.00;;;;;;4955305;28;20305;-70
2024/01/27 06:20:26;;;;;;;17.40;14.33;;;1.90;1.00;;;;;;4968885;28;20257;-69
2024/01/27 06:22:55;;;;;;;20.90;15.93;;;1.80;1.00;;;;;;4972515;28;20261;-63
2024/01/27 06:25:23;;;;;;;22.73;16.10;;;1.90;1.00;;;;;;4954850;28;20194;-62
2024/01/27 06:27:50;;;;;;;16.37;14.77;;;1.90;1.00;;;;;;4983681;28;20854;-61
2024/01/27 06:30:18;;;;;;;20.17;14.37;;;1.90;1.00;;;;;;4971093;28;20198;-64
2024/01/27 06:32:46;;;;;;;25.47;15.87;;;1.90;1.00;;;;;;4972267;28;20198;-62
2024/01/27 06:35:13;;;;;;;23.20;14.87;;;1.80;1.00;;;;;;4977016;28;20589;-65
2024/01/27 06:37:39;;;;;;;19.73;14.30;;;1.80;1.00;;;;;;4966805;28;20312;-61
2024/01/27 06:40:08;;;;;;;19.43;14.40;;;1.70;1.00;;;;;;4965939;28;20678;-62
2024/01/27 06:42:35;;;;;;;23.13;14.90;;;1.70;1.00;;;;;;4960709;28;20197;-62
2024/01/27 06:45:03;;;;;;;23.17;16.10;;;1.70;1.00;;;;;;4983328;28;20325;-63
2024/01/27 06:47:30;;;;;;;18.40;14.80;;;1.70;1.00;;;;;;4988210;28;20194;-62
2024/01/27 06:49:57;;;;;;;17.20;15.43;;;1.80;1.00;;;;;;4981102;28;20202;-63
2024/01/27 06:52:24;;;;;;;19.87;14.93;;;1.80;1.00;;;;;;4980756;28;20200;-64
2024/01/27 06:54:51;;;;;;;17.47;15.90;;;1.70;1.00;;;;;;4987531;28;20237;-64
2024/01/27 06:57:22;;;;;;;20.50;17.17;;;1.70;1.00;;;;;;4983855;28;20347;-64
2024/01/27 06:59:55;;;;;;;15.80;14.27;;;1.80;1.00;;;;;;4969724;28;20300;-64
2024/01/27 07:02:26;;;;;;;18.57;14.87;;;1.80;1.00;;;;;;4970470;28;20214;-64
2024/01/27 07:04:53;;;;;;;23.53;16.07;;;1.80;1.00;;;;;;4966331;28;20197;-64
2024/01/27 07:07:25;;;;;;;15.87;14.67;;;1.80;1.00;;;;;;4981285;28;20229;-65
2024/01/27 07:09:52;;;;;;;21.67;14.97;;;1.70;1.00;;;;;;4966752;28;20202;-63
2024/01/27 07:12:19;;;;;;;23.20;14.23;;;1.70;1.00;;;;;;4968521;28;20197;-62
2024/01/27 07:14:46;;;;;;;16.07;14.37;;;1.70;1.00;;;;;;4981691;28;20202;-63
2024/01/27 07:17:13;;;;;;;27.73;15.10;;;1.80;1.00;;;;;;4980165;28;20446;-64
2024/01/27 07:19:40;;;;;;;16.50;14.67;;;1.70;1.00;;;;;;4970842;28;20283;-61
2024/01/27 07:22:07;;;;;;;20.30;15.13;;;1.80;1.00;;;;;;4962049;28;20201;-68
2024/01/27 07:24:35;;;;;;;15.97;14.40;;;1.80;1.00;;;;;;4989700;28;20208;-68
2024/01/27 07:27:03;;;;;;;24.17;15.57;;;1.80;1.00;;;;;;4960238;28;20651;-67
2024/01/27 07:29:30;;;;;;;16.20;14.23;;;1.80;1.00;;;;;;4953351;28;20289;-69
2024/01/27 07:31:57;;;;;;;23.07;14.77;;;1.70;1.00;;;;;;4968947;28;20242;-69
2024/01/27 07:34:24;;;;;;;16.03;14.53;;;1.70;1.00;;;;;;4987207;28;20280;-67
2024/01/27 07:36:51;;;;;;;18.80;14.03;;;1.80;1.00;;;;;;4970499;28;20212;-66
2024/01/27 07:39:18;;;;;;;16.13;14.47;;;1.80;1.00;;;;;;4954730;28;20296;-66
2024/01/27 07:41:45;;;;;;;17.77;13.90;;;1.90;1.00;;;;;;4976324;28;20202;-68
2024/01/27 07:44:18;;;;;;;15.33;13.90;;;1.90;1.00;;;;;;4944962;28;20757;-65
2024/01/27 07:46:45;;;;;;;20.83;13.87;;;1.90;1.00;;;;;;4956092;28;20225;-68
2024/01/27 07:49:13;;;;;;;21.43;13.43;;;1.90;1.00;;;;;;4987481;28;20233;-68
2024/01/27 07:51:40;;;;;;;15.53;14.07;;;1.90;1.00;;;;;;4967133;28;20649;-67
2024/01/27 07:54:07;;;;;;;18.37;14.53;;;2.00;1.00;;;;;;4967036;28;20237;-68
2024/01/27 07:56:34;;;;;;;15.83;14.13;;;2.10;1.00;;;;;;4943495;28;20207;-67
2024/01/27 07:59:01;;;;;;;15.30;13.80;;;2.10;1.00;;;;;;4969302;28;20209;-68
2024/01/27 08:01:28;;;;;;;16.03;13.90;;;2.20;1.00;;;;;;4979117;28;20191;-66
2024/01/27 08:03:55;;;;;;;25.30;16.70;;;2.30;1.00;;;;;;4967872;28;20202;-67
2024/01/27 08:06:29;;;;;;;19.77;15.67;;;2.40;1.00;;;;;;4967814;28;20210;-67
2024/01/27 08:08:56;;;;;;;27.47;16.97;;;2.50;1.00;;;;;;4977896;28;20297;-66
2024/01/27 08:11:24;;;;;;;19.23;16.83;;;2.60;99.90;;;;;;4971820;28;20194;-67
2024/01/27 08:13:52;;;;;;;24.27;21.70;;;2.60;99.90;;;;;;4972378;28;20198;-66
2024/01/27 08:16:18;;;;;;;22.60;19.20;;;2.70;99.90;;;;;;4970900;28;20228;-67
2024/01/27 08:18:46;;;;;;;24.13;16.10;;;2.70;99.90;;;;;;4969155;28;20202;-66
2024/01/27 08:21:13;;;;;;;18.17;16.43;;;2.80;99.90;;;;;;4960948;28;20269;-67
2024/01/27 08:23:41;;;;;;;20.67;16.90;;;2.80;99.90;;;;;;4970823;28;20195;-67
2024/01/27 08:26:08;;;;;;;17.83;16.00;;;2.90;99.90;;;;;;4969842;28;20225;-67
2024/01/27 08:28:35;;;;;;;17.30;15.80;;;2.90;99.90;;;;;;4969875;28;20604;-67
2024/01/27 08:31:02;;;;;;;20.93;17.03;;;3.00;99.90;;;;;;4970551;28;20197;-60
2024/01/27 08:33:29;;;;;;;26.40;17.13;;;3.00;99.90;;;;;;4968699;28;20526;-62
2024/01/27 08:35:56;;;;;;;17.60;15.90;;;3.10;99.90;;;;;;4969031;28;20204;-64
2024/01/27 08:38:23;;;;;;;18.83;16.83;;;3.20;99.90;;;;;;4954541;28;20733;-64
2024/01/27 08:40:50;;;;;;;17.20;15.50;;;3.40;99.90;;;;;;4969948;28;20237;-64
2024/01/27 08:43:17;;;;;;;28.90;17.07;;;3.40;99.90;;;;;;4963891;28;20281;-62
2024/01/27 08:45:44;;;;;;;18.20;16.47;;;3.50;99.90;;;;;;4967703;28;20233;-62
2024/01/27 08:48:12;;;;;;;18.73;16.57;;;3.60;99.90;;;;;;4967367;28;20651;-62
2024/01/27 08:50:39;;;;;;;23.17;16.20;;;3.70;99.90;;;;;;4969015;28;20206;-61
2024/01/27 08:53:06;;;;;;;19.50;16.30;;;3.80;99.90;;;;;;4971302;28;20290;-62
2024/01/27 08:55:33;;;;;;;19.37;17.27;;;3.90;99.90;;;;;;4987661;28;20252;-63
2024/01/27 08:58:00;;;;;;;20.53;16.17;;;4.00;99.90;;;;;;4971439;28;20276;-64
2024/01/27 09:00:27;;;;;;;17.20;15.70;;;4.00;99.90;;;;;;4973819;28;20217;-62
2024/01/27 09:02:55;;;;;;;17.53;15.77;;;4.20;99.90;;;;;;4972646;28;20204;-62
2024/01/27 09:05:22;;;;;;;18.60;16.43;;;4.20;99.90;;;;;;4969451;28;20677;-62
2024/01/27 09:07:49;;;;;;;18.83;16.33;;;4.30;99.90;;;;;;4993766;28;20182;-61
2024/01/27 09:10:18;;;;;;;18.80;16.60;;;4.40;99.90;;;;;;4986588;28;20190;-62
2024/01/27 09:12:48;;;;;;;18.50;16.43;;;4.50;99.90;;;;;;4987018;28;20289;-64
2024/01/27 09:15:15;;;;;;;26.00;17.27;;;4.60;99.90;;;;;;4980352;28;20202;-63
2024/01/27 09:17:42;;;;;;;20.93;17.17;;;4.70;99.90;;;;;;4971286;28;20198;-64
2024/01/27 09:20:10;;;;;;;21.43;17.00;;;4.80;99.90;;;;;;4969694;28;20219;-63
2024/01/27 09:22:41;;;;;;;19.27;16.73;;;4.90;99.90;;;;;;4983133;28;20611;-59
2024/01/27 09:25:08;;;;;;;18.37;16.60;;;5.20;99.90;;;;;;4969563;28;20676;-59
2024/01/27 09:27:38;;;;;;;17.83;16.00;;;5.60;99.90;;;;;;4953170;28;20663;-59
2024/01/27 09:30:07;;;;;;;18.07;16.10;;;9.50;99.90;;;;;;4972031;28;20206;-60
2024/01/27 09:32:35;;;;;;;19.47;15.50;;;12.40;99.90;;;;;;4962455;28;20201;-60
2024/01/27 09:35:04;;;;;;;17.80;16.13;;;15.90;99.90;;;;;;4972487;28;20233;-61
2024/01/27 09:37:31;;;;;;;18.77;16.83;;;16.30;99.90;;;;;;4973381;28;20722;-59
2024/01/27 09:40:00;;;;;;;19.33;17.20;;;16.90;99.90;;;;;;4972181;28;20585;-60
2024/01/27 09:42:30;;;;;;;19.35;17.27;;;18.20;99.90;;;;;;4972300;28;20289;-63
2024/01/27 09:44:58;;;;;;;20.77;18.88;;;19.60;99.90;;;;;;4967168;28;20602;-62
2024/01/27 09:47:25;;;;;;;27.17;19.60;;;20.10;99.90;;;;;;4971257;28;20572;-63
2024/01/27 09:49:57;;;;;;;26.10;20.70;;;21.70;99.90;;;;;;4985984;28;20206;-64
2024/01/27 09:52:24;;;;;;;21.25;19.15;;;20.70;99.90;;;;;;4972590;28;20764;-63
2024/01/27 09:54:52;;;;;;;22.10;19.95;;;22.10;99.90;;;;;;4974516;28;20227;-63
2024/01/27 09:57:22;;;;;;;22.38;20.15;;;23.10;99.90;;;;;;4958022;28;20261;-63
2024/01/27 09:59:50;;;;;;;22.90;20.52;;;21.60;99.90;;;;;;4966289;28;20217;-63
2024/01/27 10:02:18;;;;;;;23.48;20.50;;;21.00;99.90;;;;;;4990641;28;20235;-63
2024/01/27 10:04:48;;;;;;;23.92;20.58;;;20.30;99.90;;;;;;4968690;28;20205;-62
2024/01/27 10:07:15;;;;;;;22.88;20.65;;;19.70;99.90;;;;;;4988074;28;20199;-64
2024/01/27 10:09:43;;;;;;;22.98;20.50;;;19.80;99.90;;;;;;4966271;28;20749;-63
2024/01/27 10:12:13;;;;;;;23.48;20.80;;;19.20;99.90;;;;;;4969232;28;20338;-62
2024/01/27 10:14:41;;;;;;;22.80;20.67;;;20.30;99.90;;;;;;4971316;28;20198;-63
2024/01/27 10:17:12;;;;;;;23.33;20.98;;;21.90;99.90;;;;;;4979866;28;20253;-63
2024/01/27 10:19:39;;;;;;;23.75;21.33;;;22.40;99.90;;;;;;4987684;28;20722;-63
2024/01/27 10:22:11;;;;;;;23.33;20.73;;;22.60;99.90;;;;;;4987179;28;20197;-63
2024/01/27 10:24:38;;;;;;;23.92;21.42;;;23.00;99.90;;;;;;4988508;28;20225;-63
2024/01/27 10:27:06;;;;;;;23.13;20.92;;;21.30;99.90;;;;;;4970988;28;20248;-62
2024/01/27 10:29:33;;;;;;;26.38;21.15;;;21.20;99.90;;;;;;4969415;28;20229;-63
2024/01/27 10:32:10;;;;;;;23.73;21.20;;;22.30;99.90;;;;;;4972923;28;20201;-63
2024/01/27 10:34:37;;;;;;;24.30;21.65;;;23.50;99.90;;;;;;4967158;28;20247;-63
2024/01/27 10:37:05;;;;;;;23.70;21.30;;;20.70;99.90;;;;;;4989402;28;20221;-62
2024/01/27 10:39:32;;;;;;;24.15;21.60;;;20.20;99.90;;;;;;4950298;28;20191;-62
2024/01/27 10:42:02;;;;;;;26.20;22.33;;;21.40;99.90;;;;;;4971195;28;20215;-65
2024/01/27 10:44:29;;;;;;;28.23;23.63;;;21.30;99.90;;;;;;4969260;28;20575;-65
2024/01/27 10:47:01;;;;;;;24.58;22.25;;;22.30;99.90;;;;;;4967035;28;20229;-63
2024/01/27 10:49:30;;;;;;;25.10;22.40;;;24.40;99.90;;;;;;4965070;28;20225;-62
2024/01/27 10:52:01;;;;;;;24.63;22.23;;;22.30;99.90;;;;;;4979756;28;20299;-64
2024/01/27 10:54:29;;;;;;;25.38;22.67;;;20.80;99.90;;;;;;4984768;28;20510;-63
2024/01/27 10:56:58;;;;;;;24.50;22.00;;;20.30;99.90;;;;;;4967566;28;20262;-63
2024/01/27 10:59:32;;;;;;;29.63;22.92;;;20.90;99.90;;;;;;4964541;28;20201;-63
2024/01/27 11:02:00;;;;;;;25.77;23.13;;;22.90;99.90;;;;;;4971373;28;20198;-64
2024/01/27 11:04:28;;;;;;;24.50;22.10;;;22.00;99.90;;;;;;4964283;28;20200;-60
2024/01/27 11:06:57;;;;;;;24.42;21.88;;;19.70;99.90;;;;;;4960830;28;20230;-62
2024/01/27 11:09:25;;;;;;;26.33;22.65;;;20.30;99.90;;;;;;4969953;28;20363;-63
2024/01/27 11:11:53;;;;;;;26.05;23.33;;;21.90;99.90;;;;;;4986410;28;20212;-63
2024/01/27 11:14:20;;;;;;;25.50;22.58;;;20.10;99.90;;;;;;4967357;28;20732;-62
2024/01/27 11:16:47;;;;;;;28.80;23.52;;;19.20;99.90;;;;;;4986759;28;20197;-63
2024/01/27 11:19:18;;;;;;;24.52;21.95;;;18.90;99.90;;;;;;4988002;28;20197;-63
2024/01/27 11:21:45;;;;;;;26.88;22.35;;;18.10;99.90;;;;;;4971116;28;20217;-64
2024/01/27 11:24:16;;;;;;;26.50;23.73;;;19.40;99.90;;;;;;4976264;28;20847;-65
2024/01/27 11:26:44;;;;;;;26.17;22.77;;;19.10;99.90;;;;;;4970611;28;20941;-62
2024/01/27 11:29:20;;;;;;;24.80;22.20;;;20.70;99.90;;;;;;4970724;28;20248;-63
2024/01/27 11:31:48;;;;;;;29.00;23.73;;;21.20;99.90;;;;;;4969211;28;20207;-63
2024/01/27 11:34:19;;;;;;;31.98;27.15;;;21.30;99.90;;;;;;4987742;28;20201;-63
2024/01/27 11:36:47;;;;;;;25.92;22.27;;;20.50;99.90;;;;;;4970735;28;20619;-63
2024/01/27 11:39:28;;;;;;;23.52;21.30;;;20.80;99.90;;;;;;4974593;28;20200;-64
2024/01/27 11:42:08;;;;;;;28.67;23.50;;;19.60;99.90;;;;;;4976995;28;20875;-63
2024/01/27 11:44:37;;;;;;;26.98;24.02;;;20.60;99.90;;;;;;4959479;28;20284;-63
2024/01/27 11:47:04;;;;;;;33.80;26.92;;;21.00;99.90;;;;;;4964302;28;20715;-63
2024/01/27 11:49:33;;;;;;;25.30;22.58;;;19.60;99.90;;;;;;4972634;28;20212;-67
2024/01/27 11:52:02;;;;;;;27.30;24.30;;;18.30;99.90;;;;;;4991027;28;20200;-64
2024/01/27 11:54:29;;;;;;;29.20;24.02;;;19.50;99.90;;;;;;4989729;28;20714;-64
2024/01/27 11:56:56;;;;;;;27.00;23.92;;;20.90;99.90;;;;;;4986865;28;20260;-64
2024/01/27 11:59:23;;;;;;;28.70;24.25;;;21.70;99.90;;;;;;4964031;28;20186;-64
2024/01/27 12:01:50;;;;;;;34.10;25.70;;;21.30;99.90;;;;;;4967238;28;20210;-61
2024/01/27 12:04:18;;;;;;;31.65;26.58;;;19.20;99.90;;;;;;4989893;28;20197;-60
2024/01/27 12:06:45;;;;;;;37.60;28.67;;;18.20;99.90;;;;;;4973103;28;20654;-61
2024/01/27 12:09:12;;;;;;;32.42;25.38;;;18.10;99.90;;;;;;4986368;28;20236;-60
2024/01/27 12:11:42;;;;;;;36.45;24.98;;;17.60;99.90;;;;;;4975299;28;20225;-63
2024/01/27 12:14:09;;;;;;;30.48;24.48;;;17.90;99.90;;;;;;4985872;28;20217;-64
2024/01/27 12:16:36;;;;;;;26.27;23.35;;;18.70;99.90;;;;;;4986971;28;20209;-64
2024/01/27 12:19:03;;;;;;;25.55;21.83;;;19.30;99.90;;;;;;4979259;28;20209;-63
2024/01/27 12:21:30;;;;;;;30.17;23.45;;;17.60;99.90;;;;;;4987273;28;20209;-63
2024/01/27 12:23:58;;;;;;;24.95;20.63;;;16.30;99.90;;;;;;4976610;28;20224;-64
2024/01/27 12:26:29;;;;;;;26.98;22.08;;;16.60;99.90;;;;;;4976762;28;20200;-64
2024/01/27 12:28:57;;;;;;;28.00;21.80;;;16.60;99.90;;;;;;4957643;28;20566;-64
2024/01/27 12:31:26;;;;;;;23.52;20.85;;;17.00;99.90;;;;;;4976595;28;20550;-64
2024/01/27 12:33:58;;;;;;;24.88;22.27;;;17.40;99.90;;;;;;4983389;28;20708;-63
2024/01/27 12:36:26;;;;;;;22.75;20.63;;;16.80;99.90;;;;;;4985293;28;21285;-65
2024/01/27 12:39:03;;;;;;;23.63;21.42;;;16.50;99.90;;;;;;4971058;28;20660;-63
2024/01/27 12:41:33;;;;;;;22.92;20.73;;;16.80;99.90;;;;;;4969489;28;20223;-63
2024/01/27 12:44:01;;;;;;;27.92;22.00;;;16.10;99.90;;;;;;4984749;28;20205;-65